createdAt,value
2022-09-12T00:00:35.300Z,98495.63
2022-09-12T00:01:37.046Z,98496.41
2022-09-12T00:02:38.882Z,98487.59
2022-09-12T00:03:40.818Z,98510.06
2022-09-12T00:04:42.605Z,98491.63
2022-09-12T00:05:46.900Z,98495.09
2022-09-12T00:06:48.652Z,98494.81
2022-09-12T00:07:50.679Z,98491.06
2022-09-12T00:08:55.261Z,98499.38
2022-09-12T00:09:56.983Z,98495.88
2022-09-12T00:10:58.660Z,98492.69
2022-09-12T00:12:00.343Z,98491.63
2022-09-12T00:13:04.769Z,98492.69
2022-09-12T00:14:08.454Z,98493.78
2022-09-12T00:15:10.904Z,98496.16
2022-09-12T00:16:20.598Z,98490.00
2022-09-12T00:17:22.315Z,98499.69
2022-09-12T00:18:24.105Z,98487.38
2022-09-12T00:19:29.673Z,98488.97
2022-09-12T00:20:31.312Z,98495.66
2022-09-12T00:21:34.742Z,98485.22
2022-09-12T00:22:36.879Z,98496.47
2022-09-12T00:23:38.674Z,98494.59
2022-09-12T00:24:41.038Z,98496.97
2022-09-12T00:25:47.972Z,98497.53
2022-09-12T00:26:49.744Z,98488.44
2022-09-12T00:27:51.397Z,98501.81
2022-09-12T00:28:53.135Z,98498.84
2022-09-12T00:29:54.886Z,98502.09
2022-09-12T00:30:56.590Z,98505.56
2022-09-12T00:31:58.256Z,98505.56
2022-09-12T00:32:59.963Z,98502.09
2022-09-12T00:34:01.775Z,98507.97
2022-09-12T00:35:03.617Z,98507.19
2022-09-12T00:36:14.868Z,98505.31
2022-09-12T00:37:16.537Z,98500.00
2022-09-12T00:38:18.477Z,98499.69
2022-09-12T00:39:20.135Z,98504.50
2022-09-12T00:40:21.866Z,98507.97
2022-09-12T00:41:29.761Z,98501.31
2022-09-12T00:42:31.432Z,98502.91
2022-09-12T00:43:39.709Z,98506.38
2022-09-12T00:44:48.301Z,98504.00
2022-09-12T00:45:50.010Z,98502.91
2022-09-12T00:46:57.503Z,98497.59
2022-09-12T00:48:03.808Z,98484.47
2022-09-12T00:49:22.917Z,98476.72
2022-09-12T00:50:25.635Z,98488.22
2022-09-12T00:51:30.712Z,98485.53
2022-09-12T00:52:55.635Z,98484.72
2022-09-12T00:53:59.648Z,98486.34
2022-09-12T00:55:21.233Z,98496.50
2022-09-12T00:56:23.693Z,98491.69
2022-09-12T00:57:31.347Z,98497.06
2022-09-12T00:58:40.204Z,98476.22
2022-09-12T01:00:10.174Z,98490.09
2022-09-12T01:01:12.077Z,98490.66
2022-09-12T01:02:13.878Z,98483.72
2022-09-12T01:03:19.537Z,98485.34
2022-09-12T01:04:25.862Z,98490.69
2022-09-12T01:05:29.517Z,98482.66
2022-09-12T01:06:37.079Z,98463.44
2022-09-12T01:07:40.788Z,98481.63
2022-09-12T01:08:43.805Z,98483.72
2022-09-12T01:09:46.326Z,98472.53
2022-09-12T01:10:49.117Z,98435.09
2022-09-12T01:11:53.206Z,98482.41
2022-09-12T01:12:54.861Z,98483.50
2022-09-12T01:13:56.715Z,98484.03
2022-09-12T01:14:58.364Z,98485.59
2022-09-12T01:16:00.077Z,98490.16
2022-09-12T01:17:02.011Z,98482.13
2022-09-12T01:18:24.618Z,98491.75
2022-09-12T01:19:38.249Z,98492.56
2022-09-12T01:20:50.571Z,98490.72
2022-09-12T01:22:01.520Z,98495.22
2022-09-12T01:23:42.898Z,98480.81
2022-09-12T01:25:22.095Z,98488.56
2022-09-12T01:26:52.450Z,98481.34
2022-09-12T01:28:10.660Z,98486.69
2022-09-12T01:29:46.318Z,98483.22
2022-09-12T01:30:54.201Z,98486.97
2022-09-12T01:32:16.758Z,98480.03
2022-09-12T01:33:25.479Z,98477.34
2022-09-12T01:34:37.770Z,98478.16
2022-09-12T01:36:28.644Z,98486.97
2022-09-12T01:37:44.375Z,98472.53
2022-09-12T01:38:50.857Z,98482.97
2022-09-12T01:40:17.395Z,98488.31
2022-09-12T01:41:21.644Z,98474.66
2022-09-12T01:42:45.338Z,98474.94
2022-09-12T01:44:15.036Z,98479.47
2022-09-12T01:45:58.891Z,98473.91
2022-09-12T01:47:26.098Z,98469.03
2022-09-12T01:48:33.194Z,98461.84
2022-09-12T01:50:02.751Z,98467.16
2022-09-12T01:51:20.251Z,98461.81
2022-09-12T01:52:39.657Z,98461.56
2022-09-12T01:54:10.072Z,98471.97
2022-09-12T01:55:35.191Z,98467.69
2022-09-12T01:56:40.200Z,98469.56
2022-09-12T01:57:55.189Z,98475.19
2022-09-12T01:59:05.284Z,98470.13
2022-09-12T02:00:11.656Z,98474.66
2022-09-12T02:01:21.886Z,98451.16
2022-09-12T02:02:34.097Z,98472.03
2022-09-12T02:03:48.709Z,98459.16
2022-09-12T02:05:11.049Z,98470.41
2022-09-12T02:06:20.767Z,98470.13
2022-09-12T02:07:37.412Z,98470.38
2022-09-12T02:08:47.421Z,98457.56
2022-09-12T02:10:04.420Z,98468.78
2022-09-12T02:11:08.260Z,98469.84
2022-09-12T02:12:15.849Z,98475.19
2022-09-12T02:13:25.945Z,98475.47
2022-09-12T02:14:41.052Z,98470.91
2022-09-12T02:16:03.289Z,98480.00
2022-09-12T02:17:21.176Z,98469.31
2022-09-12T02:18:25.435Z,98478.41
2022-09-12T02:19:34.161Z,98474.13
2022-09-12T02:20:54.880Z,98472.53
2022-09-12T02:22:00.301Z,98477.88
2022-09-12T02:23:06.551Z,98468.00
2022-09-12T02:24:12.969Z,98458.63
2022-09-12T02:25:18.401Z,98472.25
2022-09-12T02:26:35.570Z,98475.19
2022-09-12T02:27:43.104Z,98467.72
2022-09-12T02:28:44.880Z,98457.03
2022-09-12T02:29:46.841Z,98462.09
2022-09-12T02:31:01.404Z,98473.59
2022-09-12T02:32:16.020Z,98462.88
2022-09-12T02:33:37.729Z,98470.66
2022-09-12T02:34:49.629Z,98454.34
2022-09-12T02:36:02.928Z,98467.19
2022-09-12T02:37:26.882Z,98464.50
2022-09-12T02:38:38.220Z,98472.00
2022-09-12T02:39:44.970Z,98469.84
2022-09-12T02:40:47.228Z,98477.34
2022-09-12T02:41:52.071Z,98470.13
2022-09-12T02:42:53.814Z,98475.72
2022-09-12T02:43:56.028Z,98472.78
2022-09-12T02:44:57.760Z,98482.13
2022-09-12T02:45:59.629Z,98468.78
2022-09-12T02:47:16.948Z,98466.09
2022-09-12T02:48:23.825Z,98458.34
2022-09-12T02:49:25.567Z,98469.03
2022-09-12T02:50:28.186Z,98461.56
2022-09-12T02:51:30.437Z,98456.50
2022-09-12T02:52:32.418Z,98463.72
2022-09-12T02:53:34.614Z,98456.75
2022-09-12T02:54:38.288Z,98463.97
2022-09-12T02:55:42.072Z,98452.22
2022-09-12T02:56:45.671Z,98453.53
2022-09-12T02:57:47.311Z,98455.41
2022-09-12T02:58:49.486Z,98458.59
2022-09-12T02:59:58.968Z,98460.75
2022-09-12T03:01:28.505Z,98461.28
2022-09-12T03:02:57.973Z,98448.47
2022-09-12T03:04:09.541Z,98457.53
2022-09-12T03:05:34.333Z,98457.81
2022-09-12T03:06:57.816Z,98457.00
2022-09-12T03:08:07.244Z,98456.19
2022-09-12T03:09:26.495Z,98435.34
2022-09-12T03:11:03.008Z,98448.19
2022-09-12T03:12:10.882Z,98451.13
2022-09-12T03:13:26.053Z,98441.50
2022-09-12T03:14:49.350Z,98446.84
2022-09-12T03:16:18.518Z,98447.91
2022-09-12T03:17:41.800Z,98452.44
2022-09-12T03:19:11.322Z,98447.63
2022-09-12T03:20:24.094Z,98446.03
2022-09-12T03:21:53.431Z,98447.63
2022-09-12T03:22:58.835Z,98447.91
2022-09-12T03:24:14.299Z,98442.81
2022-09-12T03:25:28.846Z,98445.22
2022-09-12T03:27:11.825Z,98445.78
2022-09-12T03:28:16.361Z,98443.38
2022-09-12T03:29:19.446Z,98427.31
2022-09-12T03:30:21.277Z,98441.75
2022-09-12T03:31:23.185Z,98443.63
2022-09-12T03:32:41.427Z,98435.06
2022-09-12T03:33:43.355Z,98438.53
2022-09-12T03:34:45.378Z,98431.59
2022-09-12T03:35:47.889Z,98448.97
2022-09-12T03:36:50.536Z,98451.09
2022-09-12T03:37:53.251Z,98448.72
2022-09-12T03:38:55.332Z,98458.31
2022-09-12T03:39:57.025Z,98448.66
2022-09-12T03:40:58.718Z,98446.81
2022-09-12T03:42:00.414Z,98455.34
2022-09-12T03:43:02.584Z,98450.56
2022-09-12T03:44:04.277Z,98456.44
2022-09-12T03:45:06.900Z,98450.00
2022-09-12T03:46:08.748Z,98438.28
2022-09-12T03:47:11.434Z,98459.66
2022-09-12T03:48:13.214Z,98457.25
2022-09-12T03:49:15.056Z,98459.09
2022-09-12T03:50:16.927Z,98455.91
2022-09-12T03:51:18.611Z,98454.56
2022-09-12T03:52:21.270Z,98444.94
2022-09-12T03:53:22.907Z,98452.97
2022-09-12T03:54:24.667Z,98457.25
2022-09-12T03:55:26.834Z,98437.72
2022-09-12T03:56:28.543Z,98460.44
2022-09-12T03:57:30.202Z,98461.00
2022-09-12T03:58:32.022Z,98459.94
2022-09-12T03:59:33.675Z,98458.59
2022-09-12T04:00:35.374Z,98447.88
2022-09-12T04:01:38.432Z,98463.38
2022-09-12T04:02:40.152Z,98458.56
2022-09-12T04:03:43.494Z,98460.19
2022-09-12T04:04:48.019Z,98461.78
2022-09-12T04:05:49.691Z,98462.59
2022-09-12T04:06:51.335Z,98448.44
2022-09-12T04:07:53.046Z,98460.72
2022-09-12T04:08:55.470Z,98460.72
2022-09-12T04:09:57.136Z,98458.31
2022-09-12T04:11:07.369Z,98459.66
2022-09-12T04:12:09.080Z,98441.47
2022-09-12T04:13:10.826Z,98462.59
2022-09-12T04:14:12.489Z,98458.59
2022-09-12T04:15:14.630Z,98459.41
2022-09-12T04:16:16.818Z,98467.69
2022-09-12T04:17:18.582Z,98459.66
2022-09-12T04:18:20.219Z,98463.97
2022-09-12T04:19:21.895Z,98462.91
2022-09-12T04:20:23.586Z,98447.41
2022-09-12T04:21:25.437Z,98460.75
2022-09-12T04:22:27.233Z,98466.63
2022-09-12T04:23:28.919Z,98465.03
2022-09-12T04:24:30.770Z,98464.53
2022-09-12T04:25:32.470Z,98475.72
2022-09-12T04:26:34.166Z,98471.72
2022-09-12T04:27:35.931Z,98467.19
2022-09-12T04:28:38.604Z,98467.72
2022-09-12T04:29:40.252Z,98479.22
2022-09-12T04:30:41.916Z,98481.31
2022-09-12T04:31:44.077Z,98477.00
2022-09-12T04:32:45.856Z,98483.16
2022-09-12T04:33:47.585Z,98470.28
2022-09-12T04:34:49.531Z,98483.09
2022-09-12T04:35:51.195Z,98484.13
2022-09-12T04:36:52.855Z,98491.31
2022-09-12T04:37:54.615Z,98493.72
2022-09-12T04:38:56.765Z,98479.53
2022-09-12T04:39:59.312Z,98497.06
2022-09-12T04:41:01.291Z,98494.09
2022-09-12T04:42:04.804Z,98488.69
2022-09-12T04:43:09.233Z,98489.63
2022-09-12T04:44:14.531Z,98486.41
2022-09-12T04:45:16.908Z,98494.34
2022-09-12T04:46:22.182Z,98499.34
2022-09-12T04:47:23.855Z,98498.69
2022-09-12T04:48:25.554Z,98485.47
2022-09-12T04:49:27.248Z,98494.19
2022-09-12T04:50:29.062Z,98492.50
2022-09-12T04:51:35.985Z,98509.56
2022-09-12T04:52:37.628Z,98506.47
2022-09-12T04:53:40.152Z,98507.16
2022-09-12T04:54:41.855Z,98516.06
2022-09-12T04:55:43.577Z,98503.59
2022-09-12T04:56:47.594Z,98501.41
2022-09-12T04:57:49.225Z,98511.75
2022-09-12T04:58:50.978Z,98500.47
2022-09-12T04:59:52.611Z,98518.72
2022-09-12T05:00:54.309Z,98515.84
2022-09-12T05:01:56.062Z,98515.50
2022-09-12T05:02:57.876Z,98514.91
2022-09-12T05:04:00.148Z,98515.78
2022-09-12T05:05:01.776Z,98518.97
2022-09-12T05:06:04.038Z,98519.91
2022-09-12T05:07:06.010Z,98519.66
2022-09-12T05:08:08.518Z,98516.78
2022-09-12T05:09:14.462Z,98524.56
2022-09-12T05:10:16.586Z,98533.88
2022-09-12T05:11:26.571Z,98528.69
2022-09-12T05:12:31.148Z,98525.09
2022-09-12T05:13:33.933Z,98533.69
2022-09-12T05:14:35.754Z,98530.81
2022-09-12T05:15:37.806Z,98541.09
2022-09-12T05:16:41.414Z,98540.13
2022-09-12T05:17:43.053Z,98535.38
2022-09-12T05:18:46.723Z,98538.34
2022-09-12T05:19:48.842Z,98530.84
2022-09-12T05:20:50.489Z,98533.94
2022-09-12T05:21:52.140Z,98541.91
2022-09-12T05:22:53.771Z,98538.69
2022-09-12T05:23:59.695Z,98531.91
2022-09-12T05:25:01.352Z,98526.13
2022-09-12T05:26:05.618Z,98535.94
2022-09-12T05:27:07.508Z,98530.38
2022-09-12T05:28:09.161Z,98536.84
2022-09-12T05:29:10.862Z,98534.66
2022-09-12T05:30:12.724Z,98535.72
2022-09-12T05:31:20.025Z,98530.53
2022-09-12T05:32:21.668Z,98535.25
2022-09-12T05:33:25.159Z,98524.63
2022-09-12T05:34:28.015Z,98538.88
2022-09-12T05:35:29.699Z,98539.41
2022-09-12T05:36:31.658Z,98529.97
2022-09-12T05:37:33.313Z,98527.13
2022-09-12T05:38:35.709Z,98536.66
2022-09-12T05:39:37.413Z,98541.06
2022-09-12T05:40:39.077Z,98535.03
2022-09-12T05:41:40.906Z,98524.53
2022-09-12T05:42:42.557Z,98522.47
2022-09-12T05:43:45.529Z,98527.78
2022-09-12T05:44:47.187Z,98538.16
2022-09-12T05:45:48.900Z,98531.94
2022-09-12T05:46:51.510Z,98533.25
2022-09-12T05:47:59.838Z,98535.47
2022-09-12T05:49:06.557Z,98539.38
2022-09-12T05:50:11.008Z,98536.38
2022-09-12T05:51:21.276Z,98535.44
2022-09-12T05:52:22.992Z,98534.63
2022-09-12T05:53:28.269Z,98532.72
2022-09-12T05:54:31.703Z,98529.97
2022-09-12T05:55:33.522Z,98526.66
2022-09-12T05:56:39.535Z,98526.22
2022-09-12T05:57:46.212Z,98538.31
2022-09-12T05:58:54.334Z,98520.66
2022-09-12T05:59:55.968Z,98524.63
2022-09-12T06:01:06.992Z,98521.47
2022-09-12T06:02:10.618Z,98521.28
2022-09-12T06:03:12.360Z,98529.13
2022-09-12T06:04:14.476Z,98518.91
2022-09-12T06:05:16.215Z,98520.69
2022-09-12T06:06:20.912Z,98524.47
2022-09-12T06:07:22.835Z,98528.28
2022-09-12T06:08:24.498Z,98524.78
2022-09-12T06:09:26.276Z,98517.63
2022-09-12T06:10:28.615Z,98517.94
2022-09-12T06:11:37.377Z,98519.03
2022-09-12T06:12:39.606Z,98523.47
2022-09-12T06:13:42.841Z,98522.50
2022-09-12T06:14:44.482Z,98516.47
2022-09-12T06:15:46.147Z,98497.31
2022-09-12T06:16:48.773Z,98522.38
2022-09-12T06:17:51.497Z,98516.47
2022-09-12T06:18:55.738Z,98520.25
2022-09-12T06:19:57.387Z,98522.97
2022-09-12T06:21:06.365Z,98504.09
2022-09-12T06:22:08.234Z,98515.19
2022-09-12T06:23:09.896Z,98529.41
2022-09-12T06:24:11.944Z,98506.66
2022-09-12T06:25:14.453Z,98520.56
2022-09-12T06:26:17.925Z,98535.81
2022-09-12T06:27:19.679Z,98531.88
2022-09-12T06:28:21.386Z,98529.53
2022-09-12T06:29:23.189Z,98525.91
2022-09-12T06:30:25.553Z,98522.63
2022-09-12T06:31:30.667Z,98531.63
2022-09-12T06:32:32.472Z,98532.44
2022-09-12T06:33:35.751Z,98536.22
2022-09-12T06:34:37.501Z,98515.97
2022-09-12T06:35:39.273Z,98529.69
2022-09-12T06:36:43.255Z,98534.97
2022-09-12T06:37:45.798Z,98533.88
2022-09-12T06:38:48.856Z,98538.94
2022-09-12T06:39:50.753Z,98535.78
2022-09-12T06:40:52.396Z,98530.66
2022-09-12T06:41:54.426Z,98530.47
2022-09-12T06:42:56.103Z,98532.03
2022-09-12T06:43:59.070Z,98538.56
2022-09-12T06:45:00.829Z,98532.34
2022-09-12T06:46:03.502Z,98548.25
2022-09-12T06:47:05.339Z,98538.78
2022-09-12T06:48:07.058Z,98541.06
2022-09-12T06:49:08.840Z,98532.19
2022-09-12T06:50:10.867Z,98546.03
2022-09-12T06:51:16.214Z,98532.53
2022-09-12T06:52:18.191Z,98542.44
2022-09-12T06:53:20.057Z,98539.81
2022-09-12T06:54:21.811Z,98535.25
2022-09-12T06:55:27.718Z,98535.41
2022-09-12T06:56:29.669Z,98543.38
2022-09-12T06:57:32.708Z,98543.38
2022-09-12T06:58:35.602Z,98540.81
2022-09-12T06:59:37.326Z,98531.44
2022-09-12T07:00:39.768Z,98532.88
2022-09-12T07:01:42.165Z,98541.13
2022-09-12T07:02:44.024Z,98544.88
2022-09-12T07:03:53.820Z,98542.69
2022-09-12T07:04:55.489Z,98546.88
2022-09-12T07:05:57.334Z,98543.06
2022-09-12T07:06:58.989Z,98537.78
2022-09-12T07:08:00.617Z,98539.53
2022-09-12T07:09:04.798Z,98526.47
2022-09-12T07:10:06.976Z,98539.63
2022-09-12T07:11:20.842Z,98537.53
2022-09-12T07:12:22.495Z,98525.53
2022-09-12T07:13:24.167Z,98528.94
2022-09-12T07:14:26.221Z,98532.78
2022-09-12T07:15:27.902Z,98542.19
2022-09-12T07:16:30.417Z,98536.97
2022-09-12T07:17:32.267Z,98535.84
2022-09-12T07:18:35.225Z,98535.00
2022-09-12T07:19:36.981Z,98539.94
2022-09-12T07:20:39.908Z,98539.63
2022-09-12T07:21:42.176Z,98531.59
2022-09-12T07:22:43.824Z,98536.75
2022-09-12T07:23:45.778Z,98534.28
2022-09-12T07:24:47.788Z,98543.53
2022-09-12T07:25:59.386Z,98540.91
2022-09-12T07:27:01.077Z,98536.06
2022-09-12T07:28:02.954Z,98545.84
2022-09-12T07:29:32.331Z,98540.44
2022-09-12T07:30:27.060Z,98535.56
2022-09-12T07:31:29.377Z,98539.78
2022-09-12T07:32:31.118Z,98540.09
2022-09-12T07:33:32.756Z,98540.00
2022-09-12T07:34:35.238Z,98538.97
2022-09-12T07:35:37.172Z,98533.72
2022-09-12T07:36:39.326Z,98537.81
2022-09-12T07:37:40.974Z,98532.72
2022-09-12T07:38:44.113Z,98531.66
2022-09-12T07:39:45.954Z,98540.94
2022-09-12T07:40:48.077Z,98537.78
2022-09-12T07:41:49.742Z,98538.91
2022-09-12T07:42:51.393Z,98534.50
2022-09-12T07:43:58.294Z,98547.16
2022-09-12T07:45:00.006Z,98532.41
2022-09-12T07:46:01.907Z,98537.44
2022-09-12T07:47:04.694Z,98538.53
2022-09-12T07:48:06.490Z,98540.09
2022-09-12T07:49:08.531Z,98530.00
2022-09-12T07:50:10.435Z,98536.47
2022-09-12T07:51:12.381Z,98543.22
2022-09-12T07:52:14.043Z,98533.69
2022-09-12T07:53:16.069Z,98541.81
2022-09-12T07:54:18.029Z,98533.69
2022-09-12T07:55:19.832Z,98538.38
2022-09-12T07:56:24.054Z,98546.69
2022-09-12T07:57:27.838Z,98543.13
2022-09-12T07:58:30.537Z,98547.13
2022-09-12T07:59:51.454Z,98537.53
2022-09-12T08:00:53.908Z,98539.81
2022-09-12T08:01:55.585Z,98529.63
2022-09-12T08:02:57.532Z,98530.47
2022-09-12T08:04:00.108Z,98536.13
2022-09-12T08:05:02.623Z,98520.38
2022-09-12T08:06:21.716Z,98529.00
2022-09-12T08:07:24.061Z,98525.66
2022-09-12T08:08:25.701Z,98532.38
2022-09-12T08:09:27.356Z,98533.16
2022-09-12T08:10:29.029Z,98537.56
2022-09-12T08:11:30.791Z,98521.81
2022-09-12T08:12:32.437Z,98526.31
2022-09-12T08:13:36.264Z,98514.69
2022-09-12T08:14:37.950Z,98525.84
2022-09-12T08:15:39.622Z,98525.06
2022-09-12T08:16:41.268Z,98531.34
2022-09-12T08:17:43.178Z,98521.75
2022-09-12T08:18:45.415Z,98530.00
2022-09-12T08:19:47.672Z,98525.69
2022-09-12T08:20:49.332Z,98523.00
2022-09-12T08:21:50.990Z,98529.09
2022-09-12T08:22:52.700Z,98527.19
2022-09-12T08:23:57.202Z,98523.22
2022-09-12T08:24:58.875Z,98531.19
2022-09-12T08:26:06.116Z,98526.09
2022-09-12T08:27:08.698Z,98518.72
2022-09-12T08:28:10.348Z,98525.09
2022-09-12T08:29:12.184Z,98526.84
2022-09-12T08:30:14.304Z,98517.78
2022-09-12T08:31:18.990Z,98517.94
2022-09-12T08:32:21.612Z,98519.03
2022-09-12T08:33:23.266Z,98515.19
2022-09-12T08:34:25.163Z,98523.19
2022-09-12T08:35:26.814Z,98516.97
2022-09-12T08:36:29.741Z,98518.59
2022-09-12T08:37:31.880Z,98514.78
2022-09-12T08:38:38.609Z,98513.34
2022-09-12T08:39:40.324Z,98512.22
2022-09-12T08:41:00.286Z,98506.00
2022-09-12T08:42:04.269Z,98521.94
2022-09-12T08:43:28.656Z,98515.09
2022-09-12T08:44:49.011Z,98515.72
2022-09-12T08:46:05.123Z,98509.66
2022-09-12T08:47:27.039Z,98511.88
2022-09-12T08:48:28.910Z,98501.88
2022-09-12T08:49:40.994Z,98500.84
2022-09-12T08:50:49.294Z,98515.75
2022-09-12T08:51:52.173Z,98505.97
2022-09-12T08:52:58.907Z,98499.28
2022-09-12T08:54:02.571Z,98513.31
2022-09-12T08:55:06.786Z,98507.63
2022-09-12T08:56:11.539Z,98511.56
2022-09-12T08:57:15.323Z,98506.66
2022-09-12T08:58:25.391Z,98486.25
2022-09-12T08:59:29.107Z,98501.03
2022-09-12T09:00:47.461Z,98505.88
2022-09-12T09:01:53.966Z,98491.66
2022-09-12T09:03:18.915Z,98492.38
2022-09-12T09:04:58.771Z,98487.38
2022-09-12T09:06:10.256Z,98496.78
2022-09-12T09:07:42.829Z,98476.16
2022-09-12T09:08:58.543Z,98497.31
2022-09-12T09:10:00.171Z,98493.31
2022-09-12T09:11:20.320Z,98495.34
2022-09-12T09:12:43.854Z,98502.19
2022-09-12T09:14:17.941Z,98481.81
2022-09-12T09:15:45.886Z,98487.78
2022-09-12T09:16:51.862Z,98488.72
2022-09-12T09:18:04.350Z,98487.22
2022-09-12T09:19:30.022Z,98481.78
2022-09-12T09:21:17.818Z,98485.06
2022-09-12T09:22:32.725Z,98490.19
2022-09-12T09:23:40.602Z,98480.16
2022-09-12T09:24:51.967Z,98479.97
2022-09-12T09:26:17.953Z,98469.59
2022-09-12T09:27:39.763Z,98488.38
2022-09-12T09:28:55.975Z,98467.66
2022-09-12T09:29:57.677Z,98481.81
2022-09-12T09:30:59.443Z,98466.63
2022-09-12T09:32:05.373Z,98493.28
2022-09-12T09:33:15.734Z,98492.47
2022-09-12T09:34:23.724Z,98493.13
2022-09-12T09:35:45.124Z,98496.81
2022-09-12T09:36:49.739Z,98493.38
2022-09-12T09:37:59.729Z,98493.34
2022-09-12T09:39:04.191Z,98494.25
2022-09-12T09:40:15.850Z,98495.38
2022-09-12T09:41:17.948Z,98484.50
2022-09-12T09:42:45.794Z,98484.75
2022-09-12T09:43:47.511Z,98486.13
2022-09-12T09:44:49.909Z,98474.78
2022-09-12T09:45:56.690Z,98484.91
2022-09-12T09:46:59.948Z,98483.66
2022-09-12T09:48:27.787Z,98473.00
2022-09-12T09:49:33.730Z,98477.31
2022-09-12T09:50:36.898Z,98470.47
2022-09-12T09:51:42.422Z,98481.88
2022-09-12T09:52:44.560Z,98473.84
2022-09-12T09:53:54.283Z,98480.41
2022-09-12T09:55:01.827Z,98477.50
2022-09-12T09:56:26.279Z,98470.47
2022-09-12T09:57:40.600Z,98475.56
2022-09-12T09:58:42.343Z,98474.47
2022-09-12T09:59:44.021Z,98471.25
2022-09-12T10:00:47.402Z,98470.31
2022-09-12T10:01:57.715Z,98471.22
2022-09-12T10:03:14.334Z,98473.97
2022-09-12T10:04:46.582Z,98463.38
2022-09-12T10:05:53.537Z,98474.63
2022-09-12T10:06:58.578Z,98467.44
2022-09-12T10:08:00.707Z,98473.22
2022-09-12T10:09:13.345Z,98466.84
2022-09-12T10:10:17.905Z,98479.56
2022-09-12T10:11:23.285Z,98477.09
2022-09-12T10:12:28.851Z,98458.94
2022-09-12T10:14:01.445Z,98466.06
2022-09-12T10:15:23.680Z,98477.56
2022-09-12T10:16:49.403Z,98463.69
2022-09-12T10:17:51.758Z,98469.69
2022-09-12T10:19:01.813Z,98468.44
2022-09-12T10:20:20.482Z,98469.00
2022-09-12T10:21:34.342Z,98466.38
2022-09-12T10:22:36.110Z,98476.91
2022-09-12T10:23:41.145Z,98469.88
2022-09-12T10:24:49.170Z,98453.44
2022-09-12T10:25:58.031Z,98479.72
2022-09-12T10:27:08.913Z,98470.66
2022-09-12T10:28:20.408Z,98468.00
2022-09-12T10:29:31.584Z,98450.59
2022-09-12T10:30:34.424Z,98467.63
2022-09-12T10:31:51.261Z,98458.22
2022-09-12T10:32:53.354Z,98461.53
2022-09-12T10:33:58.941Z,98471.50
2022-09-12T10:35:04.256Z,98470.38
2022-09-12T10:36:06.268Z,98434.56
2022-09-12T10:37:20.046Z,98475.38
2022-09-12T10:38:25.263Z,98471.53
2022-09-12T10:39:27.486Z,98429.63
2022-09-12T10:40:38.994Z,98472.88
2022-09-12T10:41:41.701Z,98453.91
2022-09-12T10:42:49.164Z,98474.28
2022-09-12T10:43:51.044Z,98465.00
2022-09-12T10:44:54.677Z,98438.91
2022-09-12T10:46:19.842Z,98456.69
2022-09-12T10:47:30.984Z,98463.91
2022-09-12T10:48:33.648Z,98463.44
2022-09-12T10:49:40.134Z,98454.13
2022-09-12T10:50:43.125Z,98468.22
2022-09-12T10:51:44.805Z,98469.47
2022-09-12T10:52:46.647Z,98464.22
2022-09-12T10:53:48.424Z,98459.78
2022-09-12T10:54:51.555Z,98468.13
2022-09-12T10:56:17.052Z,98467.97
2022-09-12T10:57:18.654Z,98451.53
2022-09-12T10:58:40.411Z,98456.78
2022-09-12T11:00:05.528Z,98458.31
2022-09-12T11:01:24.966Z,98462.75
2022-09-12T11:02:48.649Z,98468.28
2022-09-12T11:04:35.244Z,98461.88
2022-09-12T11:05:51.417Z,98451.81
2022-09-12T11:07:11.435Z,98452.66
2022-09-12T11:08:29.382Z,98440.28
2022-09-12T11:09:53.090Z,98470.59
2022-09-12T11:11:23.905Z,98454.41
2022-09-12T11:12:28.537Z,98450.28
2022-09-12T11:13:47.733Z,98448.06
2022-09-12T11:15:01.275Z,98452.47
2022-09-12T11:16:30.988Z,98453.50
2022-09-12T11:18:27.154Z,98453.25
2022-09-12T11:19:37.747Z,98455.50
2022-09-12T11:20:39.377Z,98451.72
2022-09-12T11:21:57.062Z,98437.50
2022-09-12T11:23:25.559Z,98442.59
2022-09-12T11:24:37.272Z,98430.94
2022-09-12T11:26:10.938Z,98438.31
2022-09-12T11:27:18.571Z,98447.72
2022-09-12T11:28:30.568Z,98441.47
2022-09-12T11:29:52.660Z,98444.97
2022-09-12T11:30:57.101Z,98437.59
2022-09-12T11:32:20.654Z,98433.22
2022-09-12T11:33:43.379Z,98424.16
2022-09-12T11:35:04.191Z,98428.81
2022-09-12T11:36:12.893Z,98418.47
2022-09-12T11:37:33.366Z,98419.41
2022-09-12T11:38:47.327Z,98428.81
2022-09-12T11:39:55.641Z,98439.44
2022-09-12T11:41:05.664Z,98438.88
2022-09-12T11:42:17.013Z,98429.53
2022-09-12T11:43:46.072Z,98435.63
2022-09-12T11:44:57.218Z,98436.16
2022-09-12T11:46:07.157Z,98432.94
2022-09-12T11:47:13.606Z,98433.91
2022-09-12T11:48:20.835Z,98433.63
2022-09-12T11:49:25.314Z,98438.94
2022-09-12T11:50:31.996Z,98432.19
2022-09-12T11:51:55.507Z,98441.78
2022-09-12T11:53:24.201Z,98439.31
2022-09-12T11:55:01.025Z,98429.25
2022-09-12T11:56:10.227Z,98421.59
2022-09-12T11:57:20.960Z,98419.94
2022-09-12T11:58:26.782Z,98428.59
2022-09-12T11:59:34.765Z,98414.06
2022-09-12T12:00:50.311Z,98411.84
2022-09-12T12:01:59.314Z,98419.47
2022-09-12T12:03:07.190Z,98411.09
2022-09-12T12:04:12.980Z,98419.00
2022-09-12T12:05:25.316Z,98423.19
2022-09-12T12:06:43.587Z,98416.03
2022-09-12T12:07:57.228Z,98419.91
2022-09-12T12:08:59.344Z,98410.91
2022-09-12T12:10:01.105Z,98417.56
2022-09-12T12:11:04.965Z,98405.34
2022-09-12T12:12:14.457Z,98409.16
2022-09-12T12:13:21.863Z,98420.81
2022-09-12T12:14:45.530Z,98414.47
2022-09-12T12:15:55.215Z,98412.56
2022-09-12T12:16:57.318Z,98412.13
2022-09-12T12:18:29.321Z,98396.56
2022-09-12T12:19:34.914Z,98392.22
2022-09-12T12:20:36.893Z,98413.41
2022-09-12T12:21:52.612Z,98406.31
2022-09-12T12:22:55.433Z,98402.94
2022-09-12T12:24:08.820Z,98399.28
2022-09-12T12:25:15.426Z,98405.28
2022-09-12T12:26:43.552Z,98396.25
2022-09-12T12:27:56.711Z,98398.63
2022-09-12T12:29:00.022Z,98398.09
2022-09-12T12:30:01.727Z,98405.75
2022-09-12T12:31:03.690Z,98385.56
2022-09-12T12:32:05.870Z,98405.50
2022-09-12T12:33:10.414Z,98396.38
2022-09-12T12:34:29.011Z,98401.75
2022-09-12T12:36:02.519Z,98390.19
2022-09-12T12:37:19.583Z,98401.34
2022-09-12T12:38:30.337Z,98405.28
2022-09-12T12:39:31.945Z,98406.88
2022-09-12T12:40:33.876Z,98406.06
2022-09-12T12:41:44.182Z,98401.38
2022-09-12T12:42:45.823Z,98396.16
2022-09-12T12:43:49.737Z,98406.94
2022-09-12T12:44:51.705Z,98410.78
2022-09-12T12:46:02.990Z,98398.56
2022-09-12T12:47:24.301Z,98403.44
2022-09-12T12:48:26.185Z,98409.97
2022-09-12T12:49:28.867Z,98407.66
2022-09-12T12:50:32.128Z,98403.53
2022-09-12T12:51:54.963Z,98406.13
2022-09-12T12:53:07.858Z,98396.63
2022-09-12T12:54:51.527Z,98401.56
2022-09-12T12:55:55.848Z,98395.16
2022-09-12T12:57:15.640Z,98391.53
2022-09-12T12:58:35.200Z,98398.72
2022-09-12T12:59:36.895Z,98401.13
2022-09-12T13:00:40.546Z,98394.91
2022-09-12T13:01:54.794Z,98392.88
2022-09-12T13:03:01.296Z,98349.75
2022-09-12T13:04:05.627Z,98392.19
2022-09-12T13:05:22.368Z,98402.25
2022-09-12T13:06:37.646Z,98406.31
2022-09-12T13:07:40.764Z,98400.50
2022-09-12T13:08:55.425Z,98395.63
2022-09-12T13:09:58.215Z,98401.94
2022-09-12T13:11:11.744Z,98398.97
2022-09-12T13:12:26.092Z,98399.25
2022-09-12T13:13:34.347Z,98405.72
2022-09-12T13:14:55.076Z,98388.44
2022-09-12T13:15:56.792Z,98395.34
2022-09-12T13:17:02.137Z,98396.13
2022-09-12T13:18:18.858Z,98391.16